createdAt,value
2023-05-21T00:00:15.376Z,17.33
2023-05-21T00:01:15.354Z,17.33
2023-05-21T00:02:15.345Z,17.40
2023-05-21T00:03:15.487Z,17.38
2023-05-21T00:04:15.400Z,17.32
2023-05-21T00:05:15.494Z,17.33
2023-05-21T00:06:15.665Z,17.28
2023-05-21T00:07:15.520Z,17.20
2023-05-21T00:08:15.588Z,17.21
2023-05-21T00:09:15.570Z,17.22
2023-05-21T00:10:15.602Z,17.21
2023-05-21T00:11:15.639Z,17.32
2023-05-21T00:12:15.679Z,17.32
2023-05-21T00:13:15.704Z,17.35
2023-05-21T00:14:15.756Z,17.24
2023-05-21T00:15:15.781Z,17.24
2023-05-21T00:16:15.847Z,17.25
2023-05-21T00:17:15.845Z,17.22
2023-05-21T00:18:15.877Z,17.21
2023-05-21T00:19:15.969Z,17.22
2023-05-21T00:20:15.967Z,17.18
2023-05-21T00:21:15.979Z,17.21
2023-05-21T00:22:16.019Z,17.25
2023-05-21T00:23:16.048Z,17.18
2023-05-21T00:24:16.088Z,17.22
2023-05-21T00:25:16.147Z,17.22
2023-05-21T00:26:16.188Z,17.22
2023-05-21T00:27:16.189Z,17.18
2023-05-21T00:28:16.220Z,17.18
2023-05-21T00:29:16.257Z,17.21
2023-05-21T00:30:16.295Z,17.21
2023-05-21T00:31:16.346Z,17.24
2023-05-21T00:32:16.362Z,17.22
2023-05-21T00:33:16.386Z,17.25
2023-05-21T00:34:16.425Z,17.18
2023-05-21T00:35:16.527Z,17.21
2023-05-21T00:36:16.495Z,17.21
2023-05-21T00:37:16.534Z,17.20
2023-05-21T00:38:16.565Z,17.10
2023-05-21T00:39:16.591Z,17.10
2023-05-21T00:40:16.624Z,17.09
2023-05-21T00:41:16.657Z,17.12
2023-05-21T00:42:16.695Z,17.09
2023-05-21T00:43:16.725Z,17.09
2023-05-21T00:44:16.761Z,17.05
2023-05-21T00:45:16.797Z,17.07
2023-05-21T00:46:16.888Z,17.12
2023-05-21T00:47:16.864Z,17.07
2023-05-21T00:48:16.910Z,17.09
2023-05-21T00:49:16.987Z,17.09
2023-05-21T00:50:16.977Z,17.14
2023-05-21T00:51:17.004Z,17.09
2023-05-21T00:52:17.060Z,17.10
2023-05-21T00:53:17.069Z,17.14
2023-05-21T00:54:17.103Z,17.06
2023-05-21T00:55:17.136Z,17.10
2023-05-21T00:56:17.169Z,17.03
2023-05-21T00:57:17.209Z,17.02
2023-05-21T00:58:17.239Z,17.05
2023-05-21T00:59:17.266Z,17.03
2023-05-21T01:00:17.303Z,17.09
2023-05-21T01:01:17.416Z,17.07
2023-05-21T01:02:17.404Z,16.99
2023-05-21T01:03:17.519Z,17.00
2023-05-21T01:04:17.441Z,17.03
2023-05-21T01:05:17.472Z,16.99
2023-05-21T01:06:17.512Z,17.05
2023-05-21T01:07:17.556Z,16.96
2023-05-21T01:08:17.580Z,17.00
2023-05-21T01:09:17.612Z,16.95
2023-05-21T01:10:17.645Z,17.02
2023-05-21T01:11:17.678Z,17.00
2023-05-21T01:12:17.710Z,16.98
2023-05-21T01:13:17.757Z,17.03
2023-05-21T01:14:17.786Z,16.90
2023-05-21T01:15:17.808Z,16.90
2023-05-21T01:16:17.953Z,16.90
2023-05-21T01:17:17.879Z,16.87
2023-05-21T01:18:17.958Z,17.00
2023-05-21T01:19:18.073Z,16.90
2023-05-21T01:20:18.028Z,16.78
2023-05-21T01:21:18.010Z,16.80
2023-05-21T01:22:18.049Z,16.82
2023-05-21T01:23:18.082Z,16.85
2023-05-21T01:24:18.116Z,16.82
2023-05-21T01:25:18.155Z,16.87
2023-05-21T01:26:18.184Z,16.85
2023-05-21T01:27:18.215Z,16.90
2023-05-21T01:28:18.258Z,16.87
2023-05-21T01:29:18.287Z,16.84
2023-05-21T01:30:18.326Z,16.85
2023-05-21T01:31:18.364Z,16.80
2023-05-21T01:32:18.384Z,16.75
2023-05-21T01:33:18.491Z,16.87
2023-05-21T01:34:18.457Z,16.72
2023-05-21T01:35:18.488Z,16.75
2023-05-21T01:36:18.523Z,16.75
2023-05-21T01:37:18.554Z,16.77
2023-05-21T01:38:18.593Z,16.78
2023-05-21T01:39:18.626Z,16.75
2023-05-21T01:40:18.669Z,16.73
2023-05-21T01:41:18.694Z,16.72
2023-05-21T01:42:18.727Z,16.80
2023-05-21T01:43:18.761Z,16.73
2023-05-21T01:44:18.829Z,16.75
2023-05-21T01:45:18.825Z,16.70
2023-05-21T01:46:18.942Z,16.67
2023-05-21T01:47:18.945Z,16.70
2023-05-21T01:48:18.935Z,16.66
2023-05-21T01:49:18.976Z,16.73
2023-05-21T01:50:19.027Z,16.69
2023-05-21T01:51:19.033Z,16.81
2023-05-21T01:52:19.066Z,16.72
2023-05-21T01:53:19.104Z,16.70
2023-05-21T01:54:19.138Z,16.73
2023-05-21T01:55:19.176Z,16.70
2023-05-21T01:56:19.206Z,16.67
2023-05-21T01:57:19.237Z,16.70
2023-05-21T01:58:19.266Z,16.66
2023-05-21T01:59:19.393Z,16.65
2023-05-21T02:00:19.373Z,16.63
2023-05-21T02:01:19.388Z,16.63
2023-05-21T02:02:19.425Z,16.69
2023-05-21T02:03:19.578Z,16.59
2023-05-21T02:04:19.473Z,16.60
2023-05-21T02:05:19.510Z,16.66
2023-05-21T02:06:19.540Z,16.59
2023-05-21T02:07:19.578Z,16.62
2023-05-21T02:08:19.629Z,16.54
2023-05-21T02:09:19.640Z,16.59
2023-05-21T02:10:19.684Z,16.60
2023-05-21T02:11:19.720Z,16.55
2023-05-21T02:12:19.749Z,16.52
2023-05-21T02:13:19.783Z,16.55
2023-05-21T02:14:19.813Z,16.60
2023-05-21T02:15:19.861Z,16.60
2023-05-21T02:16:19.977Z,16.54
2023-05-21T02:17:19.923Z,16.60
2023-05-21T02:18:19.955Z,16.63
2023-05-21T02:19:20.017Z,16.55
2023-05-21T02:20:20.014Z,16.52
2023-05-21T02:21:20.047Z,16.51
2023-05-21T02:22:20.079Z,16.55
2023-05-21T02:23:20.156Z,16.54
2023-05-21T02:24:20.156Z,16.50
2023-05-21T02:25:20.184Z,16.54
2023-05-21T02:26:20.216Z,16.50
2023-05-21T02:27:20.253Z,16.47
2023-05-21T02:28:20.289Z,16.54
2023-05-21T02:29:20.326Z,16.50
2023-05-21T02:30:20.355Z,16.48
2023-05-21T02:31:20.391Z,16.48
2023-05-21T02:32:20.422Z,16.51
2023-05-21T02:33:20.463Z,16.48
2023-05-21T02:34:20.831Z,16.51
2023-05-21T02:35:20.523Z,16.57
2023-05-21T02:36:20.559Z,16.57
2023-05-21T02:37:20.596Z,16.47
2023-05-21T02:38:20.622Z,16.54
2023-05-21T02:39:20.657Z,16.54
2023-05-21T02:40:20.694Z,16.55
2023-05-21T02:41:20.726Z,16.52
2023-05-21T02:42:20.758Z,16.51
2023-05-21T02:43:20.816Z,16.47
2023-05-21T02:44:20.849Z,16.41
2023-05-21T02:45:20.857Z,16.41
2023-05-21T02:46:20.960Z,16.48
2023-05-21T02:47:20.927Z,16.41
2023-05-21T02:48:20.959Z,16.42
2023-05-21T02:49:20.997Z,16.37
2023-05-21T02:50:21.063Z,16.41
2023-05-21T02:51:21.082Z,16.42
2023-05-21T02:52:21.093Z,16.40
2023-05-21T02:53:21.125Z,16.36
2023-05-21T02:54:21.158Z,16.47
2023-05-21T02:55:21.198Z,16.37
2023-05-21T02:56:21.239Z,16.40
2023-05-21T02:57:21.274Z,16.34
2023-05-21T02:58:21.292Z,16.42
2023-05-21T02:59:21.328Z,16.48
2023-05-21T03:00:21.360Z,16.44
2023-05-21T03:01:21.438Z,16.40
2023-05-21T03:02:21.511Z,16.37
2023-05-21T03:03:21.653Z,16.41
2023-05-21T03:04:21.492Z,16.45
2023-05-21T03:05:21.546Z,16.40
2023-05-21T03:06:21.564Z,16.44
2023-05-21T03:07:21.604Z,16.48
2023-05-21T03:08:21.625Z,16.40
2023-05-21T03:09:21.665Z,16.42
2023-05-21T03:10:21.730Z,16.41
2023-05-21T03:11:21.730Z,16.37
2023-05-21T03:12:21.774Z,16.41
2023-05-21T03:13:21.814Z,16.40
2023-05-21T03:14:21.839Z,16.44
2023-05-21T03:15:21.863Z,16.42
2023-05-21T03:16:21.977Z,16.45
2023-05-21T03:17:21.932Z,16.44
2023-05-21T03:18:21.965Z,16.48
2023-05-21T03:19:22.099Z,16.37
2023-05-21T03:20:22.031Z,16.45
2023-05-21T03:21:22.064Z,16.42
2023-05-21T03:22:22.106Z,16.42
2023-05-21T03:23:22.134Z,16.50
2023-05-21T03:24:22.167Z,16.44
2023-05-21T03:25:22.206Z,16.51
2023-05-21T03:26:22.234Z,16.44
2023-05-21T03:27:22.279Z,16.45
2023-05-21T03:28:22.304Z,16.48
2023-05-21T03:29:22.337Z,16.48
2023-05-21T03:30:22.384Z,16.37
2023-05-21T03:31:22.494Z,16.41
2023-05-21T03:32:22.808Z,16.48
2023-05-21T03:33:22.468Z,16.48
2023-05-21T03:34:22.502Z,16.50
2023-05-21T03:35:22.540Z,16.51
2023-05-21T03:36:22.575Z,16.54
2023-05-21T03:37:22.605Z,16.51
2023-05-21T03:38:22.644Z,16.51
2023-05-21T03:39:22.681Z,16.57
2023-05-21T03:40:22.706Z,16.59
2023-05-21T03:41:22.758Z,16.60
2023-05-21T03:42:22.772Z,16.55
2023-05-21T03:43:22.817Z,16.59
2023-05-21T03:44:22.840Z,16.65
2023-05-21T03:45:22.874Z,16.57
2023-05-21T03:46:22.917Z,16.59
2023-05-21T03:47:22.989Z,16.62
2023-05-21T03:48:23.116Z,16.60
2023-05-21T03:49:23.008Z,16.62
2023-05-21T03:50:23.052Z,16.60
2023-05-21T03:51:23.084Z,16.57
2023-05-21T03:52:23.112Z,16.60
2023-05-21T03:53:23.142Z,16.57
2023-05-21T03:54:23.200Z,16.55
2023-05-21T03:55:23.212Z,16.59
2023-05-21T03:56:23.248Z,16.73
2023-05-21T03:57:23.279Z,16.65
2023-05-21T03:58:23.311Z,16.69
2023-05-21T03:59:23.346Z,16.66
2023-05-21T04:00:23.377Z,16.73
2023-05-21T04:01:23.416Z,16.67
2023-05-21T04:02:23.607Z,16.69
2023-05-21T04:03:23.617Z,16.72
2023-05-21T04:04:23.562Z,16.69
2023-05-21T04:05:23.547Z,16.73
2023-05-21T04:06:23.590Z,16.75
2023-05-21T04:07:23.616Z,16.77
2023-05-21T04:08:23.651Z,16.78
2023-05-21T04:09:23.689Z,16.82
2023-05-21T04:10:23.717Z,16.80
2023-05-21T04:11:23.755Z,16.88
2023-05-21T04:12:23.789Z,16.82
2023-05-21T04:13:23.818Z,16.77
2023-05-21T04:14:23.850Z,16.82
2023-05-21T04:15:23.889Z,16.88
2023-05-21T04:16:23.967Z,16.88
2023-05-21T04:17:23.980Z,16.88
2023-05-21T04:18:24.009Z,16.90
2023-05-21T04:19:24.062Z,16.92
2023-05-21T04:20:24.063Z,16.85
2023-05-21T04:21:24.097Z,16.87
2023-05-21T04:22:24.134Z,16.90
2023-05-21T04:23:24.160Z,16.88
2023-05-21T04:24:24.198Z,16.91
2023-05-21T04:25:24.226Z,16.90
2023-05-21T04:26:24.262Z,16.98
2023-05-21T04:27:24.290Z,17.00
2023-05-21T04:28:24.323Z,16.99
2023-05-21T04:29:24.359Z,17.02
2023-05-21T04:30:24.406Z,17.02
2023-05-21T04:31:24.474Z,16.99
2023-05-21T04:32:24.504Z,17.07
2023-05-21T04:33:24.544Z,17.12
2023-05-21T04:34:24.531Z,17.10
2023-05-21T04:35:24.565Z,17.14
2023-05-21T04:36:24.597Z,17.10
2023-05-21T04:37:24.648Z,17.18
2023-05-21T04:38:24.668Z,17.17
2023-05-21T04:39:24.695Z,17.24
2023-05-21T04:40:24.729Z,17.20
2023-05-21T04:41:24.765Z,17.20
2023-05-21T04:42:24.799Z,17.21
2023-05-21T04:43:24.834Z,17.25
2023-05-21T04:44:24.895Z,17.33
2023-05-21T04:45:24.905Z,17.24
2023-05-21T04:46:24.952Z,17.30
2023-05-21T04:47:24.992Z,17.28
2023-05-21T04:48:25.126Z,17.33
2023-05-21T04:49:25.041Z,17.42
2023-05-21T04:50:25.072Z,17.36
2023-05-21T04:51:25.105Z,17.39
2023-05-21T04:52:25.277Z,17.28
2023-05-21T04:53:25.179Z,17.38
2023-05-21T04:54:25.223Z,17.46
2023-05-21T04:55:25.241Z,17.43
2023-05-21T04:56:25.277Z,17.49
2023-05-21T04:57:25.309Z,17.47
2023-05-21T04:58:25.344Z,17.63
2023-05-21T04:59:25.386Z,17.58
2023-05-21T05:00:25.419Z,17.57
2023-05-21T05:01:25.473Z,17.65
2023-05-21T05:02:25.493Z,17.66
2023-05-21T05:03:25.579Z,17.68
2023-05-21T05:04:25.558Z,17.76
2023-05-21T05:05:25.675Z,17.79
2023-05-21T05:06:25.618Z,17.76
2023-05-21T05:07:25.655Z,17.84
2023-05-21T05:08:25.689Z,17.83
2023-05-21T05:09:25.725Z,17.83
2023-05-21T05:10:25.759Z,17.83
2023-05-21T05:11:25.793Z,17.95
2023-05-21T05:12:25.825Z,17.99
2023-05-21T05:13:25.876Z,17.95
2023-05-21T05:14:25.915Z,17.99
2023-05-21T05:15:25.928Z,17.98
2023-05-21T05:16:26.257Z,18.07
2023-05-21T05:17:26.032Z,18.04
2023-05-21T05:18:26.030Z,18.13
2023-05-21T05:19:26.104Z,18.20
2023-05-21T05:20:26.105Z,18.13
2023-05-21T05:21:26.143Z,18.21
2023-05-21T05:22:26.180Z,18.26
2023-05-21T05:23:26.201Z,18.29
2023-05-21T05:24:26.244Z,18.35
2023-05-21T05:25:26.274Z,18.36
2023-05-21T05:26:26.302Z,18.39
2023-05-21T05:27:26.341Z,18.38
2023-05-21T05:28:26.384Z,18.39
2023-05-21T05:29:26.410Z,18.51
2023-05-21T05:30:26.444Z,18.47
2023-05-21T05:31:26.523Z,18.53
2023-05-21T05:32:26.575Z,18.65
2023-05-21T05:33:26.550Z,18.56
2023-05-21T05:34:26.586Z,18.59
2023-05-21T05:35:26.616Z,18.74
2023-05-21T05:36:26.651Z,18.68
2023-05-21T05:37:26.684Z,18.78
2023-05-21T05:38:26.720Z,18.71
2023-05-21T05:39:26.754Z,18.76
2023-05-21T05:40:26.811Z,18.82
2023-05-21T05:41:26.822Z,18.79
2023-05-21T05:42:26.868Z,18.76
2023-05-21T05:43:26.897Z,18.86
2023-05-21T05:44:26.926Z,18.69
2023-05-21T05:45:26.967Z,18.86
2023-05-21T05:46:27.082Z,18.82
2023-05-21T05:47:27.073Z,18.93
2023-05-21T05:48:27.072Z,18.99
2023-05-21T05:49:27.097Z,18.97
2023-05-21T05:50:27.140Z,19.07
2023-05-21T05:51:27.171Z,19.05
2023-05-21T05:52:27.206Z,19.05
2023-05-21T05:53:27.235Z,19.15
2023-05-21T05:54:27.274Z,19.16
2023-05-21T05:55:27.308Z,19.12
2023-05-21T05:56:27.345Z,19.21
2023-05-21T05:57:27.378Z,19.30
2023-05-21T05:58:27.414Z,19.28
2023-05-21T05:59:27.497Z,19.31
2023-05-21T06:00:27.486Z,19.32
2023-05-21T06:01:27.525Z,19.34
2023-05-21T06:02:27.686Z,19.38
2023-05-21T06:03:27.716Z,19.45
2023-05-21T06:04:27.641Z,19.43
2023-05-21T06:05:27.706Z,19.45
2023-05-21T06:06:27.693Z,19.45
2023-05-21T06:07:27.728Z,19.57
2023-05-21T06:08:27.768Z,19.57
2023-05-21T06:09:27.816Z,19.61
2023-05-21T06:10:27.842Z,19.60
2023-05-21T06:11:27.870Z,19.62
2023-05-21T06:12:27.920Z,19.72
2023-05-21T06:13:27.936Z,19.67
2023-05-21T06:14:27.974Z,19.65
2023-05-21T06:15:28.003Z,19.70
2023-05-21T06:16:28.079Z,19.67
2023-05-21T06:17:28.102Z,19.65
2023-05-21T06:18:28.145Z,19.80
2023-05-21T06:19:28.230Z,19.76
2023-05-21T06:20:28.196Z,19.78
2023-05-21T06:21:28.220Z,19.82
2023-05-21T06:22:28.259Z,19.82
2023-05-21T06:23:28.288Z,19.83
2023-05-21T06:24:28.344Z,19.80
2023-05-21T06:25:28.356Z,19.83
2023-05-21T06:26:28.393Z,19.78
2023-05-21T06:27:28.429Z,19.92
2023-05-21T06:28:28.561Z,19.94
2023-05-21T06:29:28.506Z,19.94
2023-05-21T06:30:28.589Z,19.90
2023-05-21T06:31:28.575Z,19.90
2023-05-21T06:32:28.720Z,19.92
2023-05-21T06:33:28.871Z,19.95
2023-05-21T06:34:28.680Z,19.95
2023-05-21T06:35:28.710Z,19.94
2023-05-21T06:36:28.754Z,20.01
2023-05-21T06:37:28.790Z,20.05
2023-05-21T06:38:28.826Z,20.05
2023-05-21T06:39:28.865Z,20.01
2023-05-21T06:40:28.890Z,20.05
2023-05-21T06:41:28.926Z,20.13
2023-05-21T06:42:28.960Z,20.17
2023-05-21T06:43:29.002Z,20.16
2023-05-21T06:44:29.040Z,20.15
2023-05-21T06:45:29.117Z,20.17
2023-05-21T06:46:29.223Z,20.19
2023-05-21T06:47:29.169Z,20.20
2023-05-21T06:48:29.180Z,20.34
2023-05-21T06:49:29.215Z,20.33
2023-05-21T06:50:29.247Z,20.31
2023-05-21T06:51:29.282Z,20.25
2023-05-21T06:52:29.317Z,20.33
2023-05-21T06:53:29.359Z,20.38
2023-05-21T06:54:29.386Z,20.30
2023-05-21T06:55:29.440Z,20.46
2023-05-21T06:56:29.465Z,20.44
2023-05-21T06:57:29.501Z,20.44
2023-05-21T06:58:29.531Z,20.42
2023-05-21T06:59:29.564Z,20.44
2023-05-21T07:00:29.604Z,20.57
2023-05-21T07:01:29.693Z,20.56
2023-05-21T07:02:29.844Z,20.57
2023-05-21T07:03:29.824Z,20.57
2023-05-21T07:04:29.744Z,20.57
2023-05-21T07:05:29.778Z,20.68
2023-05-21T07:06:29.820Z,20.69
2023-05-21T07:07:29.852Z,20.68
2023-05-21T07:08:29.890Z,20.64
2023-05-21T07:09:29.923Z,20.75
2023-05-21T07:10:29.959Z,20.73
2023-05-21T07:11:29.993Z,20.71
2023-05-21T07:12:30.034Z,20.82
2023-05-21T07:13:30.065Z,20.81
2023-05-21T07:14:30.095Z,20.73
2023-05-21T07:15:30.132Z,20.90
2023-05-21T07:16:30.240Z,20.85
2023-05-21T07:17:30.254Z,20.87
2023-05-21T07:18:30.243Z,20.76
2023-05-21T07:19:30.297Z,20.88
2023-05-21T07:20:30.327Z,20.91
2023-05-21T07:21:30.347Z,20.85
2023-05-21T07:22:30.384Z,20.90
2023-05-21T07:23:30.431Z,20.93
2023-05-21T07:24:30.460Z,20.94
2023-05-21T07:25:30.520Z,20.94
2023-05-21T07:26:30.606Z,21.01
2023-05-21T07:27:30.561Z,21.05
2023-05-21T07:28:30.601Z,21.01
2023-05-21T07:29:30.634Z,21.19
2023-05-21T07:30:30.673Z,21.16
2023-05-21T07:31:30.728Z,21.30
2023-05-21T07:32:30.768Z,21.33
2023-05-21T07:33:30.781Z,21.40
2023-05-21T07:34:30.820Z,21.43
2023-05-21T07:35:30.856Z,21.48
2023-05-21T07:36:30.893Z,21.58
2023-05-21T07:37:30.942Z,21.67
2023-05-21T07:38:30.972Z,21.74
2023-05-21T07:39:31.000Z,21.85
2023-05-21T07:40:31.035Z,21.89
2023-05-21T07:41:31.073Z,21.86
2023-05-21T07:42:31.113Z,21.98
2023-05-21T07:43:31.144Z,21.99
2023-05-21T07:44:31.186Z,22.06
2023-05-21T07:45:31.214Z,22.19
2023-05-21T07:46:31.297Z,22.29
2023-05-21T07:47:31.339Z,22.21
2023-05-21T07:48:32.548Z,22.38
2023-05-21T07:49:31.378Z,22.33
2023-05-21T07:50:31.419Z,22.46
2023-05-21T07:51:31.440Z,22.46
2023-05-21T07:52:31.503Z,22.57
2023-05-21T07:53:31.506Z,22.60
2023-05-21T07:54:31.563Z,22.72
2023-05-21T07:55:31.581Z,22.69
2023-05-21T07:56:31.625Z,22.72
2023-05-21T07:57:31.655Z,22.84
2023-05-21T07:58:31.696Z,22.86
2023-05-21T07:59:31.738Z,23.01
2023-05-21T08:00:31.772Z,23.00
2023-05-21T08:01:31.886Z,23.07
2023-05-21T08:02:31.908Z,23.04
2023-05-21T08:03:32.108Z,23.18
2023-05-21T08:04:32.016Z,23.26
2023-05-21T08:05:31.955Z,23.34
2023-05-21T08:06:31.986Z,23.37
2023-05-21T08:07:32.031Z,23.37
2023-05-21T08:08:32.064Z,23.42
2023-05-21T08:09:32.099Z,23.53
2023-05-21T08:10:32.143Z,23.59
2023-05-21T08:11:32.173Z,23.60
2023-05-21T08:12:32.210Z,23.71
2023-05-21T08:13:32.252Z,23.74
2023-05-21T08:14:32.286Z,23.79
2023-05-21T08:15:32.323Z,23.82
2023-05-21T08:16:32.416Z,23.93
2023-05-21T08:17:32.431Z,23.96
2023-05-21T08:18:32.438Z,24.00
2023-05-21T08:19:32.575Z,24.06
2023-05-21T08:20:32.516Z,24.18
2023-05-21T08:21:32.544Z,24.21
2023-05-21T08:22:32.583Z,24.24
2023-05-21T08:23:32.624Z,24.31
2023-05-21T08:24:32.665Z,24.34
2023-05-21T08:25:32.692Z,24.48
2023-05-21T08:26:32.736Z,24.56
2023-05-21T08:27:32.769Z,24.56
2023-05-21T08:28:32.809Z,24.68
2023-05-21T08:29:32.843Z,24.68
2023-05-21T08:30:32.881Z,24.71
2023-05-21T08:31:33.022Z,24.75
2023-05-21T08:32:32.988Z,24.77
2023-05-21T08:33:32.996Z,24.77
2023-05-21T08:34:33.036Z,24.77
2023-05-21T08:35:33.073Z,24.87
2023-05-21T08:36:33.112Z,24.97
2023-05-21T08:37:33.147Z,24.97
2023-05-21T08:38:33.202Z,24.99
2023-05-21T08:39:33.231Z,25.05
2023-05-21T08:40:33.259Z,25.17
2023-05-21T08:41:33.298Z,25.20
2023-05-21T08:43:33.383Z,25.26
2023-05-21T08:44:33.410Z,25.38
2023-05-21T08:45:33.483Z,25.31
2023-05-21T08:46:33.526Z,25.54
2023-05-21T08:47:33.543Z,25.60
2023-05-21T08:48:33.569Z,25.61
2023-05-21T08:49:33.602Z,25.63
2023-05-21T08:50:33.641Z,25.74
2023-05-21T08:51:33.672Z,25.83
2023-05-21T08:52:33.720Z,25.90
2023-05-21T08:53:33.753Z,25.98
2023-05-21T08:54:33.791Z,25.91
2023-05-21T08:55:33.849Z,26.11
2023-05-21T08:56:33.872Z,26.19
2023-05-21T08:57:33.912Z,26.27
2023-05-21T08:58:33.946Z,26.36
2023-05-21T08:59:33.983Z,26.36
2023-05-21T09:00:34.021Z,26.44
2023-05-21T09:01:34.067Z,26.41
2023-05-21T09:02:34.151Z,26.42
2023-05-21T09:03:34.151Z,26.42
2023-05-21T09:04:34.225Z,26.47
2023-05-21T09:05:34.267Z,26.47
2023-05-21T09:06:34.252Z,26.47
2023-05-21T09:07:34.293Z,26.51
2023-05-21T09:08:34.424Z,26.50
2023-05-21T09:09:34.385Z,26.57
2023-05-21T09:10:34.416Z,26.51
2023-05-21T09:11:34.443Z,26.59
2023-05-21T09:12:34.490Z,26.60
2023-05-21T09:13:35.423Z,26.71
2023-05-21T09:14:34.559Z,26.76
2023-05-21T09:15:34.768Z,26.83
2023-05-21T09:16:34.731Z,26.86
2023-05-21T09:17:34.742Z,26.83
2023-05-21T09:18:34.719Z,26.88
2023-05-21T09:19:34.899Z,26.96
2023-05-21T09:20:34.809Z,26.94
2023-05-21T09:21:34.831Z,27.05
2023-05-21T09:22:34.874Z,27.06
2023-05-21T09:23:34.916Z,27.21
2023-05-21T09:24:36.476Z,27.25
2023-05-21T09:25:35.217Z,27.24
2023-05-21T09:26:35.059Z,27.21
2023-05-21T09:27:35.069Z,27.25
2023-05-21T09:28:35.104Z,27.25
2023-05-21T09:29:35.175Z,27.34
2023-05-21T09:30:36.302Z,27.28
2023-05-21T09:31:35.234Z,27.27
2023-05-21T09:32:35.328Z,27.38
2023-05-21T09:33:35.354Z,27.25
2023-05-21T09:34:35.350Z,27.43
2023-05-21T09:35:36.229Z,27.49
2023-05-21T09:36:35.420Z,27.50
2023-05-21T09:37:35.461Z,27.52
2023-05-21T09:38:35.510Z,27.53
2023-05-21T09:39:35.538Z,27.55
2023-05-21T09:40:36.025Z,27.66
2023-05-21T09:41:35.632Z,27.77
2023-05-21T09:42:35.656Z,27.87
2023-05-21T09:43:35.698Z,27.84
2023-05-21T09:44:35.730Z,27.87
2023-05-21T09:45:35.930Z,28.01
2023-05-21T09:46:35.843Z,28.05
2023-05-21T09:47:35.880Z,28.09
2023-05-21T09:48:35.891Z,28.08
2023-05-21T09:49:35.930Z,28.15
2023-05-21T09:50:36.260Z,28.25
2023-05-21T09:51:36.009Z,28.33
2023-05-21T09:52:36.048Z,28.40
2023-05-21T09:53:36.086Z,28.50
2023-05-21T09:54:36.146Z,28.62
2023-05-21T09:55:36.177Z,28.61
2023-05-21T09:56:36.222Z,28.82
2023-05-21T09:57:36.245Z,28.83
2023-05-21T09:58:36.290Z,28.72
2023-05-21T09:59:36.326Z,28.79
2023-05-21T10:00:36.558Z,28.83
2023-05-21T10:01:36.473Z,28.77
2023-05-21T10:02:36.498Z,28.76
2023-05-21T10:03:36.487Z,28.80
2023-05-21T10:04:36.555Z,28.92
2023-05-21T10:05:36.567Z,28.98
2023-05-21T10:06:36.614Z,29.08
2023-05-21T10:07:36.650Z,29.07
2023-05-21T10:08:36.688Z,29.10
2023-05-21T10:09:36.725Z,29.20
2023-05-21T10:10:36.890Z,29.12
2023-05-21T10:11:36.810Z,29.27
2023-05-21T10:12:36.864Z,29.29
2023-05-21T10:13:36.888Z,29.29
2023-05-21T10:14:36.940Z,29.48
2023-05-21T10:15:36.968Z,29.58
2023-05-21T10:16:37.191Z,29.66
2023-05-21T10:17:37.074Z,29.73
2023-05-21T10:18:37.091Z,29.78
2023-05-21T10:19:37.132Z,29.95
2023-05-21T10:20:37.547Z,29.95
2023-05-21T10:21:37.211Z,30.01
2023-05-21T10:22:37.258Z,30.00
2023-05-21T10:23:37.290Z,30.00
2023-05-21T10:24:37.332Z,30.16
2023-05-21T10:25:37.378Z,30.15
2023-05-21T10:26:37.418Z,30.16
2023-05-21T10:27:37.453Z,30.26
2023-05-21T10:28:37.502Z,30.34
2023-05-21T10:29:37.539Z,30.40
2023-05-21T10:30:37.944Z,30.42
2023-05-21T10:31:37.623Z,30.49
2023-05-21T10:32:37.833Z,30.60
2023-05-21T10:33:37.815Z,30.53
2023-05-21T10:34:37.753Z,30.68
2023-05-21T10:35:38.031Z,30.66
2023-05-21T10:36:37.819Z,30.61
2023-05-21T10:37:37.869Z,30.68
2023-05-21T10:38:37.913Z,30.68
2023-05-21T10:39:37.949Z,30.82
2023-05-21T10:40:38.160Z,30.85
2023-05-21T10:41:38.031Z,30.93
2023-05-21T10:42:38.071Z,30.94
2023-05-21T10:43:38.132Z,31.03
2023-05-21T10:44:38.161Z,31.04
2023-05-21T10:45:38.259Z,31.05
2023-05-21T10:46:38.235Z,31.13
2023-05-21T10:47:38.349Z,31.13
2023-05-21T10:48:38.320Z,31.16
2023-05-21T10:49:38.356Z,31.15
2023-05-21T10:50:38.672Z,31.15
2023-05-21T10:51:38.443Z,31.10
2023-05-21T10:52:38.490Z,31.16
2023-05-21T10:53:38.547Z,31.13
2023-05-21T10:54:38.594Z,31.18
2023-05-21T10:55:38.607Z,31.25
2023-05-21T10:56:38.649Z,31.19
2023-05-21T10:57:38.713Z,31.22
2023-05-21T10:58:38.733Z,31.15
2023-05-21T10:59:38.775Z,31.13
2023-05-21T11:00:38.979Z,31.19
2023-05-21T11:01:38.953Z,31.32
2023-05-21T11:02:38.986Z,31.31
2023-05-21T11:03:39.079Z,31.28
2023-05-21T11:04:38.984Z,31.22
2023-05-21T11:05:39.025Z,31.15
2023-05-21T11:06:39.066Z,31.18
2023-05-21T11:07:39.111Z,31.15
2023-05-21T11:08:39.150Z,31.09
2023-05-21T11:09:39.194Z,31.07
2023-05-21T11:10:39.522Z,31.03
2023-05-21T11:11:39.275Z,30.98
2023-05-21T11:12:39.319Z,30.85
2023-05-21T11:13:39.360Z,30.90
2023-05-21T11:14:39.797Z,30.85
2023-05-21T11:15:39.444Z,30.88
2023-05-21T11:16:39.575Z,30.82
2023-05-21T11:17:39.564Z,30.68
2023-05-21T11:18:39.575Z,30.66
2023-05-21T11:19:39.652Z,30.61
2023-05-21T11:20:39.656Z,30.57
2023-05-21T11:21:39.696Z,30.54
2023-05-21T11:22:39.732Z,30.64
2023-05-21T11:23:39.789Z,30.79
2023-05-21T11:24:39.816Z,30.79
2023-05-21T11:25:39.867Z,30.90
2023-05-21T11:26:39.899Z,30.96
2023-05-21T11:27:39.957Z,31.07
2023-05-21T11:28:39.994Z,31.22
2023-05-21T11:29:40.026Z,31.27
2023-05-21T11:30:41.123Z,31.35
2023-05-21T11:31:40.225Z,31.35
2023-05-21T11:32:40.277Z,31.45
2023-05-21T11:33:40.190Z,31.53
2023-05-21T11:34:40.235Z,31.60
2023-05-21T11:35:40.276Z,31.67
2023-05-21T11:36:40.319Z,31.62
2023-05-21T11:37:40.361Z,31.64
2023-05-21T11:38:40.403Z,31.74
2023-05-21T11:39:40.444Z,31.72
2023-05-21T11:40:40.489Z,31.79
2023-05-21T11:41:40.528Z,31.78
2023-05-21T11:42:40.578Z,31.76
2023-05-21T11:43:40.650Z,31.87
2023-05-21T11:44:40.655Z,31.75
2023-05-21T11:45:40.696Z,31.85
2023-05-21T11:46:40.753Z,31.75
2023-05-21T11:47:40.826Z,31.76
2023-05-21T11:48:40.824Z,31.82
2023-05-21T11:49:40.867Z,31.90
2023-05-21T11:50:40.903Z,31.75
2023-05-21T11:51:40.957Z,31.75
2023-05-21T11:52:40.988Z,31.76
2023-05-21T11:53:42.197Z,31.87
2023-05-21T11:54:41.073Z,31.78
2023-05-21T11:55:41.133Z,31.87
2023-05-21T11:56:41.156Z,31.90
2023-05-21T11:57:41.205Z,31.95
2023-05-21T11:58:41.238Z,31.91
2023-05-21T11:59:41.282Z,31.94
2023-05-21T12:00:41.331Z,31.97
2023-05-21T12:01:41.371Z,31.82
2023-05-21T12:02:41.500Z,31.85
2023-05-21T12:03:41.607Z,31.78
2023-05-21T12:04:41.497Z,31.74
2023-05-21T12:05:41.591Z,31.71
2023-05-21T12:06:41.582Z,31.68
2023-05-21T12:07:41.629Z,31.68
2023-05-21T12:08:41.670Z,31.64
2023-05-21T12:09:41.713Z,31.65
2023-05-21T12:10:41.751Z,31.67
2023-05-21T12:11:41.794Z,31.68
2023-05-21T12:12:53.882Z,31.65
2023-05-21T12:13:41.904Z,31.68
2023-05-21T12:14:41.914Z,31.64
2023-05-21T12:15:41.964Z,31.67
2023-05-21T12:16:42.076Z,31.84
2023-05-21T12:17:42.113Z,31.85
2023-05-21T12:18:42.150Z,31.94
2023-05-21T12:19:42.131Z,32.05
2023-05-21T12:20:42.276Z,31.99
2023-05-21T12:21:42.226Z,31.99
2023-05-21T12:22:42.259Z,32.10
2023-05-21T12:23:42.296Z,32.17
2023-05-21T12:24:42.337Z,32.22
2023-05-21T12:25:42.378Z,32.19
2023-05-21T12:26:42.422Z,32.24
2023-05-21T12:27:42.478Z,32.31
2023-05-21T12:28:42.511Z,32.17
2023-05-21T12:29:42.615Z,32.19
2023-05-21T12:30:42.592Z,32.22
2023-05-21T12:31:42.693Z,32.25
2023-05-21T12:32:42.679Z,32.16
2023-05-21T12:33:42.724Z,32.28
2023-05-21T12:34:42.762Z,32.16
2023-05-21T12:35:42.816Z,32.28
2023-05-21T12:36:42.845Z,32.17
2023-05-21T12:37:42.889Z,32.19
2023-05-21T12:38:42.927Z,32.05
2023-05-21T12:39:42.972Z,31.95
2023-05-21T12:40:43.014Z,31.88
2023-05-21T12:41:43.073Z,31.90
2023-05-21T12:42:43.109Z,31.67
2023-05-21T12:43:43.139Z,31.71
2023-05-21T12:44:43.183Z,31.68
2023-05-21T12:45:43.329Z,31.59
2023-05-21T12:46:43.315Z,31.46
2023-05-21T12:47:43.351Z,31.47
2023-05-21T12:48:43.360Z,31.59
2023-05-21T12:49:43.397Z,31.59
2023-05-21T12:50:43.441Z,31.72
2023-05-21T12:51:43.477Z,31.69
2023-05-21T12:52:43.521Z,31.85
2023-05-21T12:53:43.565Z,31.82